sensor_id;sensor_type;location;lat;lon;timestamp;pressure;altitude;pressure_sealevel;temperature;humidity
48041;BME280;33815;48.386;11.738;2023-04-29T00:01:13;96207.84;;;7.76;100.00
48041;BME280;33815;48.386;11.738;2023-04-29T00:03:38;96203.34;;;7.68;100.00
48041;BME280;33815;48.386;11.738;2023-04-29T00:06:03;96213.19;;;7.65;100.00
48041;BME280;33815;48.386;11.738;2023-04-29T00:08:28;96208.41;;;7.60;100.00
48041;BME280;33815;48.386;11.738;2023-04-29T00:10:54;96211.44;;;7.55;100.00
48041;BME280;33815;48.386;11.738;2023-04-29T00:13:19;96196.19;;;7.43;100.00
48041;BME280;33815;48.386;11.738;2023-04-29T00:15:45;96199.56;;;7.43;100.00
48041;BME280;33815;48.386;11.738;2023-04-29T00:18:10;96205.19;;;7.38;100.00
48041;BME280;33815;48.386;11.738;2023-04-29T00:20:36;96210.66;;;7.35;100.00
48041;BME280;33815;48.386;11.738;2023-04-29T00:23:03;96204.78;;;7.33;100.00
48041;BME280;33815;48.386;11.738;2023-04-29T00:25:28;96198.38;;;7.37;100.00
48041;BME280;33815;48.386;11.738;2023-04-29T00:27:54;96204.63;;;7.45;100.00
48041;BME280;33815;48.386;11.738;2023-04-29T00:30:20;96203.00;;;7.44;100.00
48041;BME280;33815;48.386;11.738;2023-04-29T00:32:45;96203.66;;;7.46;100.00
48041;BME280;33815;48.386;11.738;2023-04-29T00:35:10;96208.47;;;7.41;100.00
48041;BME280;33815;48.386;11.738;2023-04-29T00:37:36;96201.09;;;7.36;100.00
48041;BME280;33815;48.386;11.738;2023-04-29T00:40:01;96203.28;;;7.41;100.00
48041;BME280;33815;48.386;11.738;2023-04-29T00:42:28;96197.50;;;7.57;100.00
48041;BME280;33815;48.386;11.738;2023-04-29T00:44:53;96208.53;;;7.68;100.00
48041;BME280;33815;48.386;11.738;2023-04-29T00:47:18;96202.78;;;7.75;100.00
48041;BME280;33815;48.386;11.738;2023-04-29T00:49:44;96191.44;;;7.76;100.00
48041;BME280;33815;48.386;11.738;2023-04-29T00:52:10;96202.59;;;7.86;100.00
48041;BME280;33815;48.386;11.738;2023-04-29T00:54:38;96206.41;;;7.92;100.00
48041;BME280;33815;48.386;11.738;2023-04-29T00:57:03;96179.69;;;7.81;100.00
48041;BME280;33815;48.386;11.738;2023-04-29T00:59:32;96193.59;;;7.90;100.00
48041;BME280;33815;48.386;11.738;2023-04-29T01:02:02;96177.91;;;7.82;100.00
48041;BME280;33815;48.386;11.738;2023-04-29T01:04:31;96198.22;;;7.86;100.00
48041;BME280;33815;48.386;11.738;2023-04-29T01:07:13;96197.28;;;7.87;100.00
48041;BME280;33815;48.386;11.738;2023-04-29T01:09:55;96200.28;;;7.93;100.00
48041;BME280;33815;48.386;11.738;2023-04-29T01:15:04;96193.28;;;7.93;100.00
48041;BME280;33815;48.386;11.738;2023-04-29T01:17:38;96180.09;;;7.77;100.00
48041;BME280;33815;48.386;11.738;2023-04-29T01:20:05;96194.03;;;7.76;100.00
48041;BME280;33815;48.386;11.738;2023-04-29T01:22:31;96183.59;;;7.58;100.00
48041;BME280;33815;48.386;11.738;2023-04-29T01:24:56;96198.31;;;7.57;100.00
48041;BME280;33815;48.386;11.738;2023-04-29T01:27:41;96196.97;;;7.53;100.00
48041;BME280;33815;48.386;11.738;2023-04-29T01:30:31;96197.66;;;7.55;100.00
48041;BME280;33815;48.386;11.738;2023-04-29T01:33:13;96183.03;;;7.64;100.00
48041;BME280;33815;48.386;11.738;2023-04-29T01:36:17;96194.75;;;7.68;100.00
48041;BME280;33815;48.386;11.738;2023-04-29T01:38:59;96195.69;;;7.67;100.00
48041;BME280;33815;48.386;11.738;2023-04-29T01:41:43;96183.31;;;7.61;100.00
48041;BME280;33815;48.386;11.738;2023-04-29T01:44:14;96190.34;;;7.78;100.00
48041;BME280;33815;48.386;11.738;2023-04-29T01:46:42;96200.44;;;7.81;100.00
48041;BME280;33815;48.386;11.738;2023-04-29T01:49:07;96187.88;;;7.77;100.00
48041;BME280;33815;48.386;11.738;2023-04-29T01:51:33;96195.66;;;7.77;100.00
48041;BME280;33815;48.386;11.738;2023-04-29T01:53:58;96204.66;;;7.82;100.00
48041;BME280;33815;48.386;11.738;2023-04-29T01:56:24;96177.25;;;7.70;100.00
48041;BME280;33815;48.386;11.738;2023-04-29T01:58:49;96198.84;;;7.70;100.00
48041;BME280;33815;48.386;11.738;2023-04-29T02:01:14;96195.03;;;7.65;100.00
48041;BME280;33815;48.386;11.738;2023-04-29T02:03:39;96190.38;;;7.68;100.00
48041;BME280;33815;48.386;11.738;2023-04-29T02:06:05;96195.97;;;7.74;100.00
48041;BME280;33815;48.386;11.738;2023-04-29T02:08:31;96189.25;;;7.81;100.00
48041;BME280;33815;48.386;11.738;2023-04-29T02:10:57;96195.66;;;7.77;100.00
48041;BME280;33815;48.386;11.738;2023-04-29T02:13:24;96193.78;;;7.69;100.00
48041;BME280;33815;48.386;11.738;2023-04-29T02:15:49;96192.84;;;7.60;100.00
48041;BME280;33815;48.386;11.738;2023-04-29T02:18:14;96184.13;;;7.51;100.00
48041;BME280;33815;48.386;11.738;2023-04-29T02:20:40;96189.59;;;7.58;100.00
48041;BME280;33815;48.386;11.738;2023-04-29T02:23:06;96196.97;;;7.53;100.00
48041;BME280;33815;48.386;11.738;2023-04-29T02:25:31;96196.84;;;7.45;100.00
48041;BME280;33815;48.386;11.738;2023-04-29T02:27:56;96199.19;;;7.38;100.00
48041;BME280;33815;48.386;11.738;2023-04-29T02:30:22;96193.34;;;7.26;100.00
48041;BME280;33815;48.386;11.738;2023-04-29T02:32:47;96198.66;;;7.25;100.00
48041;BME280;33815;48.386;11.738;2023-04-29T02:35:12;96189.25;;;7.14;100.00
48041;BME280;33815;48.386;11.738;2023-04-29T02:37:37;96197.44;;;7.19;100.00
48041;BME280;33815;48.386;11.738;2023-04-29T02:40:03;96175.78;;;7.10;100.00
48041;BME280;33815;48.386;11.738;2023-04-29T02:42:29;96193.75;;;7.22;100.00
48041;BME280;33815;48.386;11.738;2023-04-29T02:44:54;96192.25;;;7.19;100.00
48041;BME280;33815;48.386;11.738;2023-04-29T02:47:20;96188.00;;;7.28;100.00
48041;BME280;33815;48.386;11.738;2023-04-29T02:49:45;96188.16;;;7.26;100.00
48041;BME280;33815;48.386;11.738;2023-04-29T02:52:11;96187.78;;;7.21;100.00
48041;BME280;33815;48.386;11.738;2023-04-29T02:54:36;96191.84;;;7.14;100.00
48041;BME280;33815;48.386;11.738;2023-04-29T02:57:02;96182.34;;;7.05;100.00
48041;BME280;33815;48.386;11.738;2023-04-29T02:59:27;96203.06;;;7.14;100.00
48041;BME280;33815;48.386;11.738;2023-04-29T03:01:52;96182.59;;;7.01;100.00
48041;BME280;33815;48.386;11.738;2023-04-29T03:04:18;96195.41;;;7.13;100.00
48041;BME280;33815;48.386;11.738;2023-04-29T03:06:44;96195.56;;;7.11;100.00
48041;BME280;33815;48.386;11.738;2023-04-29T03:09:10;96193.22;;;7.18;100.00
48041;BME280;33815;48.386;11.738;2023-04-29T03:11:36;96198.38;;;7.28;100.00
48041;BME280;33815;48.386;11.738;2023-04-29T03:14:02;96188.16;;;7.26;100.00
48041;BME280;33815;48.386;11.738;2023-04-29T03:16:28;96195.09;;;7.35;100.00
48041;BME280;33815;48.386;11.738;2023-04-29T03:18:53;96196.88;;;7.35;100.00
48041;BME280;33815;48.386;11.738;2023-04-29T03:21:18;96194.53;;;7.42;100.00
48041;BME280;33815;48.386;11.738;2023-04-29T03:23:43;96185.69;;;7.34;100.00
48041;BME280;33815;48.386;11.738;2023-04-29T03:26:09;96198.63;;;7.44;100.00
48041;BME280;33815;48.386;11.738;2023-04-29T03:28:35;96180.09;;;7.29;100.00
48041;BME280;33815;48.386;11.738;2023-04-29T03:31:00;96186.63;;;7.33;100.00
48041;BME280;33815;48.386;11.738;2023-04-29T03:33:26;96196.75;;;7.36;100.00
48041;BME280;33815;48.386;11.738;2023-04-29T03:35:51;96193.19;;;7.28;100.00
48041;BME280;33815;48.386;11.738;2023-04-29T03:38:16;96185.19;;;7.21;100.00
48041;BME280;33815;48.386;11.738;2023-04-29T03:40:41;96182.47;;;7.13;100.00
48041;BME280;33815;48.386;11.738;2023-04-29T03:43:07;96189.66;;;7.19;100.00
48041;BME280;33815;48.386;11.738;2023-04-29T03:45:33;96188.84;;;7.28;100.00
48041;BME280;33815;48.386;11.738;2023-04-29T03:47:59;96188.84;;;7.28;100.00
48041;BME280;33815;48.386;11.738;2023-04-29T03:50:24;96183.81;;;7.27;100.00
48041;BME280;33815;48.386;11.738;2023-04-29T03:52:50;96178.47;;;7.28;100.00
48041;BME280;33815;48.386;11.738;2023-04-29T03:55:15;96191.41;;;7.38;100.00
48041;BME280;33815;48.386;11.738;2023-04-29T03:57:40;96187.75;;;7.41;100.00
48041;BME280;33815;48.386;11.738;2023-04-29T04:00:06;96197.53;;;7.47;100.00
48041;BME280;33815;48.386;11.738;2023-04-29T04:02:32;96201.50;;;7.41;100.00
48041;BME280;33815;48.386;11.738;2023-04-29T04:04:57;96205.47;;;7.35;100.00
48041;BME280;33815;48.386;11.738;2023-04-29T04:07:23;96204.78;;;7.33;100.00
48041;BME280;33815;48.386;11.738;2023-04-29T04:09:48;96203.16;;;7.32;100.00
48041;BME280;33815;48.386;11.738;2023-04-29T04:12:13;96205.34;;;7.37;100.00
48041;BME280;33815;48.386;11.738;2023-04-29T04:14:38;96206.13;;;7.37;100.00
48041;BME280;33815;48.386;11.738;2023-04-29T04:17:04;96204.63;;;7.35;100.00
48041;BME280;33815;48.386;11.738;2023-04-29T04:19:29;96213.13;;;7.37;100.00
48041;BME280;33815;48.386;11.738;2023-04-29T04:21:55;96213.13;;;7.37;100.00
48041;BME280;33815;48.386;11.738;2023-04-29T04:24:20;96218.44;;;7.35;100.00
48041;BME280;33815;48.386;11.738;2023-04-29T04:26:46;96217.06;;;7.41;100.00
48041;BME280;33815;48.386;11.738;2023-04-29T04:29:11;96223.75;;;7.44;100.00
48041;BME280;33815;48.386;11.738;2023-04-29T04:31:36;96219.94;;;7.48;100.00
48041;BME280;33815;48.386;11.738;2023-04-29T04:34:02;96210.50;;;7.47;100.00
48041;BME280;33815;48.386;11.738;2023-04-29T04:36:27;96208.19;;;7.53;100.00
48041;BME280;33815;48.386;11.738;2023-04-29T04:38:52;96228.28;;;7.79;100.00
48041;BME280;33815;48.386;11.738;2023-04-29T04:41:18;96236.00;;;7.99;100.00
48041;BME280;33815;48.386;11.738;2023-04-29T04:43:43;96235.97;;;8.09;100.00
48041;BME280;33815;48.386;11.738;2023-04-29T04:46:13;96238.63;;;8.27;100.00
48041;BME280;33815;48.386;11.738;2023-04-29T04:48:39;96244.28;;;8.40;100.00
48041;BME280;33815;48.386;11.738;2023-04-29T04:51:08;96233.72;;;8.51;100.00
48041;BME280;33815;48.386;11.738;2023-04-29T04:53:34;96215.78;;;8.58;100.00
48041;BME280;33815;48.386;11.738;2023-04-29T04:56:00;96235.25;;;8.72;100.00
48041;BME280;33815;48.386;11.738;2023-04-29T04:58:26;96243.94;;;8.81;100.00
48041;BME280;33815;48.386;11.738;2023-04-29T05:00:51;96238.81;;;8.89;100.00
48041;BME280;33815;48.386;11.738;2023-04-29T05:03:16;96233.88;;;8.96;100.00
48041;BME280;33815;48.386;11.738;2023-04-29T05:05:42;96231.78;;;8.99;100.00
48041;BME280;33815;48.386;11.738;2023-04-29T05:08:07;96240.31;;;9.09;100.00
48041;BME280;33815;48.386;11.738;2023-04-29T05:10:35;96241.88;;;9.20;100.00
48041;BME280;33815;48.386;11.738;2023-04-29T05:13:00;96238.81;;;9.25;100.00
48041;BME280;33815;48.386;11.738;2023-04-29T05:15:25;96243.94;;;9.35;100.00
48041;BME280;33815;48.386;11.738;2023-04-29T05:17:51;96231.47;;;9.38;100.00
48041;BME280;33815;48.386;11.738;2023-04-29T05:20:16;96237.16;;;9.42;100.00
48041;BME280;33815;48.386;11.738;2023-04-29T05:22:41;96235.03;;;9.37;100.00
48041;BME280;33815;48.386;11.738;2023-04-29T05:25:07;96247.63;;;9.50;100.00
48041;BME280;33815;48.386;11.738;2023-04-29T05:27:32;96223.28;;;9.33;100.00
48041;BME280;33815;48.386;11.738;2023-04-29T05:29:58;96257.03;;;9.43;100.00
48041;BME280;33815;48.386;11.738;2023-04-29T05:32:23;96246.69;;;9.51;100.00
48041;BME280;33815;48.386;11.738;2023-04-29T05:34:48;96260.03;;;9.56;100.00
48041;BME280;33815;48.386;11.738;2023-04-29T05:37:14;96239.53;;;9.53;100.00
48041;BME280;33815;48.386;11.738;2023-04-29T05:39:39;96255.13;;;9.53;100.00
48041;BME280;33815;48.386;11.738;2023-04-29T05:42:05;96256.31;;;9.59;100.00
48041;BME280;33815;48.386;11.738;2023-04-29T05:44:31;96255.56;;;9.67;100.00
48041;BME280;33815;48.386;11.738;2023-04-29T05:46:56;96254.13;;;9.72;100.00
48041;BME280;33815;48.386;11.738;2023-04-29T05:49:22;96264.34;;;9.92;100.00
48041;BME280;33815;48.386;11.738;2023-04-29T05:51:48;96257.28;;;9.84;100.00
48041;BME280;33815;48.386;11.738;2023-04-29T05:54:13;96258.63;;;9.88;100.00
48041;BME280;33815;48.386;11.738;2023-04-29T05:56:38;96271.63;;;10.15;100.00
48041;BME280;33815;48.386;11.738;2023-04-29T05:59:04;96270.56;;;10.34;100.00
48041;BME280;33815;48.386;11.738;2023-04-29T06:01:29;96269.50;;;10.44;100.00
48041;BME280;33815;48.386;11.738;2023-04-29T06:03:54;96281.63;;;10.62;100.00
48041;BME280;33815;48.386;11.738;2023-04-29T06:06:19;96268.56;;;10.54;100.00
48041;BME280;33815;48.386;11.738;2023-04-29T06:08:45;96283.13;;;10.81;100.00
48041;BME280;33815;48.386;11.738;2023-04-29T06:11:10;96278.88;;;10.80;100.00
48041;BME280;33815;48.386;11.738;2023-04-29T06:13:36;96286.28;;;10.93;100.00
48041;BME280;33815;48.386;11.738;2023-04-29T06:16:01;96270.78;;;10.83;100.00
48041;BME280;33815;48.386;11.738;2023-04-29T06:18:26;96287.59;;;10.97;100.00
48041;BME280;33815;48.386;11.738;2023-04-29T06:20:52;96292.31;;;11.02;100.00
48041;BME280;33815;48.386;11.738;2023-04-29T06:23:17;96288.63;;;11.21;100.00
48041;BME280;33815;48.386;11.738;2023-04-29T06:25:43;96290.56;;;11.27;100.00
48041;BME280;33815;48.386;11.738;2023-04-29T06:28:08;96299.56;;;11.41;100.00
48041;BME280;33815;48.386;11.738;2023-04-29T06:30:33;96300.19;;;11.51;100.00
48041;BME280;33815;48.386;11.738;2023-04-29T06:32:58;96300.88;;;11.53;100.00
48041;BME280;33815;48.386;11.738;2023-04-29T06:35:24;96303.31;;;11.55;100.00
48041;BME280;33815;48.386;11.738;2023-04-29T06:37:49;96305.59;;;11.82;100.00
48041;BME280;33815;48.386;11.738;2023-04-29T06:40:15;96301.66;;;11.87;100.00
48041;BME280;33815;48.386;11.738;2023-04-29T06:42:40;96313.41;;;11.82;100.00
48041;BME280;33815;48.386;11.738;2023-04-29T06:45:06;96296.28;;;11.72;100.00
48041;BME280;33815;48.386;11.738;2023-04-29T06:47:31;96302.47;;;11.71;100.00
48041;BME280;33815;48.386;11.738;2023-04-29T06:49:57;96316.19;;;11.73;100.00
48041;BME280;33815;48.386;11.738;2023-04-29T06:52:22;96306.06;;;11.78;100.00
48041;BME280;33815;48.386;11.738;2023-04-29T06:54:47;96307.22;;;12.00;100.00
48041;BME280;33815;48.386;11.738;2023-04-29T06:57:12;96302.81;;;11.92;100.00
48041;BME280;33815;48.386;11.738;2023-04-29T06:59:38;96307.56;;;11.97;100.00
48041;BME280;33815;48.386;11.738;2023-04-29T07:02:03;96304.56;;;12.25;100.00
48041;BME280;33815;48.386;11.738;2023-04-29T07:04:28;96307.66;;;12.12;100.00
48041;BME280;33815;48.386;11.738;2023-04-29T07:06:54;96320.53;;;12.30;100.00
48041;BME280;33815;48.386;11.738;2023-04-29T07:09:20;96321.66;;;12.36;100.00
48041;BME280;33815;48.386;11.738;2023-04-29T07:11:45;96316.06;;;12.55;100.00
48041;BME280;33815;48.386;11.738;2023-04-29T07:14:10;96317.81;;;12.71;100.00
48041;BME280;33815;48.386;11.738;2023-04-29T07:16:35;96326.44;;;12.72;100.00
48041;BME280;33815;48.386;11.738;2023-04-29T07:19:01;96317.13;;;12.69;100.00
48041;BME280;33815;48.386;11.738;2023-04-29T07:21:26;96319.47;;;12.64;100.00
48041;BME280;33815;48.386;11.738;2023-04-29T07:23:52;96318.19;;;12.60;100.00
48041;BME280;33815;48.386;11.738;2023-04-29T07:26:19;96310.94;;;12.70;100.00
48041;BME280;33815;48.386;11.738;2023-04-29T07:28:47;96318.47;;;13.05;100.00
48041;BME280;33815;48.386;11.738;2023-04-29T07:31:12;96319.28;;;13.28;100.00
48041;BME280;33815;48.386;11.738;2023-04-29T07:33:38;96315.56;;;13.54;100.00
48041;BME280;33815;48.386;11.738;2023-04-29T07:36:04;96320.03;;;13.45;100.00
48041;BME280;33815;48.386;11.738;2023-04-29T07:38:31;96310.63;;;13.59;100.00
48041;BME280;33815;48.386;11.738;2023-04-29T07:40:56;96311.97;;;13.70;100.00
48041;BME280;33815;48.386;11.738;2023-04-29T07:43:21;96315.19;;;13.80;100.00
48041;BME280;33815;48.386;11.738;2023-04-29T07:45:47;96322.66;;;14.21;100.00
48041;BME280;33815;48.386;11.738;2023-04-29T07:48:13;96319.66;;;14.25;100.00
48041;BME280;33815;48.386;11.738;2023-04-29T07:50:38;96321.38;;;14.17;100.00
48041;BME280;33815;48.386;11.738;2023-04-29T07:53:03;96313.56;;;13.94;100.00
48041;BME280;33815;48.386;11.738;2023-04-29T07:55:29;96327.13;;;14.66;100.00
48041;BME280;33815;48.386;11.738;2023-04-29T07:57:55;96331.00;;;14.70;100.00
48041;BME280;33815;48.386;11.738;2023-04-29T08:00:21;96323.13;;;15.21;100.00
48041;BME280;33815;48.386;11.738;2023-04-29T08:02:51;96326.09;;;15.98;100.00
48041;BME280;33815;48.386;11.738;2023-04-29T08:05:16;96319.66;;;15.79;100.00
48041;BME280;33815;48.386;11.738;2023-04-29T08:07:42;96333.72;;;16.21;100.00
48041;BME280;33815;48.386;11.738;2023-04-29T08:10:07;96321.03;;;15.97;100.00
48041;BME280;33815;48.386;11.738;2023-04-29T08:12:33;96328.22;;;15.66;100.00
48041;BME280;33815;48.386;11.738;2023-04-29T08:14:58;96329.16;;;15.37;100.00
48041;BME280;33815;48.386;11.738;2023-04-29T08:17:23;96333.16;;;14.96;100.00
48041;BME280;33815;48.386;11.738;2023-04-29T08:19:49;96329.63;;;14.74;100.00
48041;BME280;33815;48.386;11.738;2023-04-29T08:22:14;96326.53;;;15.00;100.00
48041;BME280;33815;48.386;11.738;2023-04-29T08:24:40;96318.28;;;15.62;100.00
48041;BME280;33815;48.386;11.738;2023-04-29T08:27:06;96313.53;;;15.93;100.00
48041;BME280;33815;48.386;11.738;2023-04-29T08:29:32;96317.03;;;16.07;100.00
48041;BME280;33815;48.386;11.738;2023-04-29T08:31:57;96310.06;;;15.93;100.00
48041;BME280;33815;48.386;11.738;2023-04-29T08:34:22;96316.19;;;16.00;100.00
48041;BME280;33815;48.386;11.738;2023-04-29T08:36:47;96320.91;;;15.83;99.78
48041;BME280;33815;48.386;11.738;2023-04-29T08:39:13;96325.94;;;15.41;96.87
48041;BME280;33815;48.386;11.738;2023-04-29T08:41:38;96317.47;;;15.39;99.52
48041;BME280;33815;48.386;11.738;2023-04-29T08:44:04;96323.47;;;15.55;97.09
48041;BME280;33815;48.386;11.738;2023-04-29T08:46:30;96327.19;;;15.82;97.04
48041;BME280;33815;48.386;11.738;2023-04-29T08:48:56;96328.59;;;15.63;91.41
48041;BME280;33815;48.386;11.738;2023-04-29T08:51:22;96332.16;;;15.99;94.79
48041;BME280;33815;48.386;11.738;2023-04-29T08:53:48;96316.19;;;16.00;94.36
48041;BME280;33815;48.386;11.738;2023-04-29T08:56:16;96322.28;;;15.79;92.36
48041;BME280;33815;48.386;11.738;2023-04-29T08:58:44;96332.41;;;15.61;92.92
48041;BME280;33815;48.386;11.738;2023-04-29T09:01:10;96331.53;;;15.53;96.03
48041;BME280;33815;48.386;11.738;2023-04-29T09:03:49;96326.13;;;15.18;94.44
48041;BME280;33815;48.386;11.738;2023-04-29T09:06:18;96332.22;;;15.40;95.81
48041;BME280;33815;48.386;11.738;2023-04-29T09:08:45;96318.91;;;15.42;91.79
48041;BME280;33815;48.386;11.738;2023-04-29T09:11:11;96326.47;;;15.73;93.57
48041;BME280;33815;48.386;11.738;2023-04-29T09:13:38;96327.28;;;16.59;93.56
48041;BME280;33815;48.386;11.738;2023-04-29T09:16:03;96324.44;;;16.95;90.12
48041;BME280;33815;48.386;11.738;2023-04-29T09:18:43;96320.53;;;16.85;83.52
48041;BME280;33815;48.386;11.738;2023-04-29T09:21:16;96312.41;;;16.38;83.99
48041;BME280;33815;48.386;11.738;2023-04-29T09:23:41;96313.00;;;16.05;84.90
48041;BME280;33815;48.386;11.738;2023-04-29T09:26:07;96313.22;;;16.10;83.07
48041;BME280;33815;48.386;11.738;2023-04-29T09:28:32;96311.84;;;16.14;85.33
48041;BME280;33815;48.386;11.738;2023-04-29T09:30:58;96309.69;;;16.24;84.77
48041;BME280;33815;48.386;11.738;2023-04-29T09:33:23;96314.22;;;16.72;90.30
48041;BME280;33815;48.386;11.738;2023-04-29T09:35:52;96311.63;;;16.79;85.91
48041;BME280;33815;48.386;11.738;2023-04-29T09:38:18;96315.66;;;17.43;83.04
48041;BME280;33815;48.386;11.738;2023-04-29T09:40:43;96301.53;;;17.98;72.18
48041;BME280;33815;48.386;11.738;2023-04-29T09:43:17;96286.94;;;18.22;76.40
48041;BME280;33815;48.386;11.738;2023-04-29T09:45:47;96308.44;;;18.06;72.34
48041;BME280;33815;48.386;11.738;2023-04-29T09:48:13;96310.03;;;17.67;69.81
48041;BME280;33815;48.386;11.738;2023-04-29T09:50:40;96320.81;;;16.97;71.30
48041;BME280;33815;48.386;11.738;2023-04-29T09:53:08;96313.94;;;16.60;74.88
48041;BME280;33815;48.386;11.738;2023-04-29T09:58:00;96315.00;;;16.73;76.19
48041;BME280;33815;48.386;11.738;2023-04-29T10:00:30;96322.22;;;16.92;75.46
48041;BME280;33815;48.386;11.738;2023-04-29T10:02:58;96316.44;;;17.17;71.84
48041;BME280;33815;48.386;11.738;2023-04-29T10:05:27;96332.44;;;17.16;72.05
48041;BME280;33815;48.386;11.738;2023-04-29T10:07:55;96331.09;;;17.46;72.39
48041;BME280;33815;48.386;11.738;2023-04-29T10:10:22;96327.03;;;17.57;71.54
48041;BME280;33815;48.386;11.738;2023-04-29T10:12:53;96324.44;;;17.77;74.45
48041;BME280;33815;48.386;11.738;2023-04-29T10:17:54;96309.75;;;18.69;66.21
48041;BME280;33815;48.386;11.738;2023-04-29T10:20:23;96288.78;;;18.87;63.63
48041;BME280;33815;48.386;11.738;2023-04-29T10:22:53;96310.22;;;18.39;63.73
48041;BME280;33815;48.386;11.738;2023-04-29T10:25:22;96305.56;;;17.74;66.56
48041;BME280;33815;48.386;11.738;2023-04-29T10:27:49;96313.06;;;17.57;69.28
48041;BME280;33815;48.386;11.738;2023-04-29T10:30:18;96306.41;;;18.08;65.15
48041;BME280;33815;48.386;11.738;2023-04-29T10:32:45;96308.56;;;18.51;64.75
48041;BME280;33815;48.386;11.738;2023-04-29T10:35:12;96302.25;;;19.17;64.62
48041;BME280;33815;48.386;11.738;2023-04-29T10:37:44;96303.13;;;18.46;62.50
48041;BME280;33815;48.386;11.738;2023-04-29T10:42:49;96289.97;;;17.92;58.01
48041;BME280;33815;48.386;11.738;2023-04-29T10:45:31;96298.31;;;18.03;62.77
48041;BME280;33815;48.386;11.738;2023-04-29T10:50:27;96295.34;;;18.64;64.39
48041;BME280;33815;48.386;11.738;2023-04-29T10:52:54;96284.16;;;19.14;59.35
48041;BME280;33815;48.386;11.738;2023-04-29T10:55:19;96278.25;;;19.51;54.74
48041;BME280;33815;48.386;11.738;2023-04-29T10:57:44;96270.47;;;19.31;54.01
48041;BME280;33815;48.386;11.738;2023-04-29T11:00:28;96277.06;;;19.47;56.85
48041;BME280;33815;48.386;11.738;2023-04-29T11:02:55;96270.81;;;19.66;53.81
48041;BME280;33815;48.386;11.738;2023-04-29T11:05:34;96274.91;;;19.94;55.54
48041;BME280;33815;48.386;11.738;2023-04-29T11:10:39;96267.09;;;19.49;51.73
48041;BME280;33815;48.386;11.738;2023-04-29T11:13:24;96277.06;;;19.15;53.09
48041;BME280;33815;48.386;11.738;2023-04-29T11:15:51;96269.56;;;19.12;52.07
48041;BME280;33815;48.386;11.738;2023-04-29T11:18:17;96254.03;;;18.83;51.95
48041;BME280;33815;48.386;11.738;2023-04-29T11:23:30;96262.88;;;19.41;51.24
48041;BME280;33815;48.386;11.738;2023-04-29T11:25:56;96258.72;;;19.20;50.05
48041;BME280;33815;48.386;11.738;2023-04-29T11:28:22;96263.16;;;18.94;52.98
48041;BME280;33815;48.386;11.738;2023-04-29T11:30:49;96283.00;;;18.45;54.16
48041;BME280;33815;48.386;11.738;2023-04-29T11:33:15;96276.88;;;19.10;58.26
48041;BME280;33815;48.386;11.738;2023-04-29T11:35:40;96274.50;;;19.02;51.75
48041;BME280;33815;48.386;11.738;2023-04-29T11:38:06;96283.28;;;18.82;51.66
48041;BME280;33815;48.386;11.738;2023-04-29T11:40:32;96265.22;;;18.92;50.96
48041;BME280;33815;48.386;11.738;2023-04-29T11:42:57;96269.75;;;19.49;50.89
48041;BME280;33815;48.386;11.738;2023-04-29T11:45:22;96257.28;;;19.24;48.92
48041;BME280;33815;48.386;11.738;2023-04-29T11:47:48;96284.34;;;18.74;50.62
48041;BME280;33815;48.386;11.738;2023-04-29T11:50:17;96268.16;;;18.57;49.48
48041;BME280;33815;48.386;11.738;2023-04-29T11:52:45;96284.69;;;18.19;51.70
48041;BME280;33815;48.386;11.738;2023-04-29T11:55:11;96287.56;;;17.91;52.53
48041;BME280;33815;48.386;11.738;2023-04-29T11:57:37;96293.84;;;18.17;51.61
48041;BME280;33815;48.386;11.738;2023-04-29T12:00:10;96296.25;;;17.71;52.51
48041;BME280;33815;48.386;11.738;2023-04-29T12:02:38;96310.13;;;18.72;53.22
48041;BME280;33815;48.386;11.738;2023-04-29T12:05:05;96285.88;;;19.02;52.42
48041;BME280;33815;48.386;11.738;2023-04-29T12:07:31;96289.50;;;19.08;50.54
48041;BME280;33815;48.386;11.738;2023-04-29T12:09:56;96301.66;;;19.09;53.18
48041;BME280;33815;48.386;11.738;2023-04-29T12:12:22;96291.94;;;18.44;54.23
48041;BME280;33815;48.386;11.738;2023-04-29T12:14:48;96305.13;;;18.57;58.07
48041;BME280;33815;48.386;11.738;2023-04-29T12:17:14;96295.03;;;19.63;52.07
48041;BME280;33815;48.386;11.738;2023-04-29T12:19:39;96307.16;;;19.46;53.34
48041;BME280;33815;48.386;11.738;2023-04-29T12:22:05;96297.38;;;19.53;50.24
48041;BME280;33815;48.386;11.738;2023-04-29T12:24:38;96282.28;;;20.11;48.52
48041;BME280;33815;48.386;11.738;2023-04-29T12:27:07;96285.41;;;19.44;47.43
48041;BME280;33815;48.386;11.738;2023-04-29T12:29:34;96288.88;;;19.44;48.40
48041;BME280;33815;48.386;11.738;2023-04-29T12:32:00;96288.41;;;19.54;49.34
48041;BME280;33815;48.386;11.738;2023-04-29T12:34:29;96290.94;;;19.99;48.93
48041;BME280;33815;48.386;11.738;2023-04-29T12:36:56;96286.81;;;20.03;49.15
48041;BME280;33815;48.386;11.738;2023-04-29T12:39:23;96297.69;;;19.95;51.02
48041;BME280;33815;48.386;11.738;2023-04-29T12:41:48;96299.94;;;19.34;51.86
48041;BME280;33815;48.386;11.738;2023-04-29T12:44:14;96312.63;;;18.54;54.62
48041;BME280;33815;48.386;11.738;2023-04-29T12:46:40;96308.81;;;17.89;57.18
48041;BME280;33815;48.386;11.738;2023-04-29T12:49:06;96330.88;;;17.41;57.98
48041;BME280;33815;48.386;11.738;2023-04-29T12:51:32;96328.41;;;17.33;58.19
48041;BME280;33815;48.386;11.738;2023-04-29T12:54:03;96325.44;;;18.43;58.89
48041;BME280;33815;48.386;11.738;2023-04-29T12:56:32;96304.28;;;19.15;51.70
48041;BME280;33815;48.386;11.738;2023-04-29T12:59:08;96304.56;;;19.00;51.80
48041;BME280;33815;48.386;11.738;2023-04-29T13:01:37;96296.28;;;18.83;51.35
48041;BME280;33815;48.386;11.738;2023-04-29T13:04:03;96305.88;;;19.55;51.53